createdAt,value
2022-09-28T00:02:21.948Z,13.93
2022-09-28T00:04:49.737Z,14.70
2022-09-28T00:07:17.268Z,14.00
2022-09-28T00:09:46.226Z,14.33
2022-09-28T00:12:13.742Z,14.30
2022-09-28T00:14:43.038Z,14.97
2022-09-28T00:17:12.228Z,13.53
2022-09-28T00:19:40.436Z,14.10
2022-09-28T00:22:08.203Z,13.90
2022-09-28T00:24:35.983Z,14.30
2022-09-28T00:27:06.183Z,13.67
2022-09-28T00:29:35.384Z,13.03
2022-09-28T00:32:04.164Z,12.70
2022-09-28T00:34:32.531Z,12.93
2022-09-28T00:37:00.375Z,12.27
2022-09-28T00:39:28.098Z,12.90
2022-09-28T00:41:56.095Z,12.63
2022-09-28T00:44:33.283Z,13.17
2022-09-28T00:47:02.867Z,13.83
2022-09-28T00:49:33.255Z,14.37
2022-09-28T00:52:01.168Z,14.60
2022-09-28T00:54:28.798Z,15.43
2022-09-28T00:56:56.652Z,14.83
2022-09-28T00:59:24.883Z,14.70
2022-09-28T01:01:53.887Z,15.30
2022-09-28T01:04:25.889Z,14.43
2022-09-28T01:06:57.213Z,15.10
2022-09-28T01:09:26.288Z,14.53
2022-09-28T01:11:55.250Z,14.73
2022-09-28T01:14:25.669Z,14.90
2022-09-28T01:16:58.917Z,15.43
2022-09-28T01:19:36.169Z,13.77
2022-09-28T01:22:14.274Z,14.23
2022-09-28T01:24:43.447Z,15.67
2022-09-28T01:27:14.568Z,16.10
2022-09-28T01:29:46.154Z,15.80
2022-09-28T01:32:18.007Z,17.23
2022-09-28T01:34:49.323Z,16.80
2022-09-28T01:37:19.736Z,16.50
2022-09-28T01:39:50.548Z,17.33
2022-09-28T01:42:22.149Z,17.73
2022-09-28T01:44:51.713Z,18.77
2022-09-28T01:47:21.650Z,20.10
2022-09-28T01:49:51.877Z,20.50
2022-09-28T01:52:21.865Z,20.20
2022-09-28T01:54:53.062Z,20.57
2022-09-28T01:57:24.081Z,21.13
2022-09-28T01:59:57.120Z,20.40
2022-09-28T02:02:26.911Z,20.87
2022-09-28T02:04:56.642Z,20.73
2022-09-28T02:07:25.533Z,21.17
2022-09-28T02:09:56.145Z,19.97
2022-09-28T02:12:28.347Z,20.13
2022-09-28T02:14:58.735Z,20.60
2022-09-28T02:17:26.503Z,19.43
2022-09-28T02:19:54.446Z,19.63
2022-09-28T02:22:25.989Z,20.27
2022-09-28T02:24:55.757Z,21.50
2022-09-28T02:27:28.967Z,21.53
2022-09-28T02:29:57.390Z,21.27
2022-09-28T02:32:25.586Z,20.13
2022-09-28T02:34:53.313Z,19.33
2022-09-28T02:37:20.953Z,21.97
2022-09-28T02:39:48.711Z,18.53
2022-09-28T02:42:21.109Z,19.10
2022-09-28T02:44:57.815Z,20.57
2022-09-28T02:47:28.384Z,19.53
2022-09-28T02:49:59.760Z,19.83
2022-09-28T02:52:38.361Z,18.27
2022-09-28T02:55:15.161Z,18.37
2022-09-28T02:57:48.246Z,18.60
2022-09-28T03:00:20.061Z,19.43
2022-09-28T03:02:52.410Z,19.00
2022-09-28T03:05:21.992Z,19.53
2022-09-28T03:07:57.136Z,21.17
2022-09-28T03:10:26.703Z,19.73
2022-09-28T03:12:55.082Z,19.27
2022-09-28T03:15:25.150Z,17.30
2022-09-28T03:17:53.088Z,16.73
2022-09-28T03:20:20.779Z,15.93
2022-09-28T03:23:12.326Z,13.40
2022-09-28T03:25:36.872Z,14.13
2022-09-28T03:28:04.607Z,12.53
2022-09-28T03:30:34.285Z,14.33
2022-09-28T03:33:02.668Z,11.03
2022-09-28T03:35:30.300Z,11.93
2022-09-28T03:37:58.204Z,11.87
2022-09-28T03:40:25.978Z,12.83
2022-09-28T03:42:54.105Z,11.63
2022-09-28T03:45:21.673Z,12.83
2022-09-28T03:47:50.614Z,12.40
2022-09-28T03:50:18.133Z,12.73
2022-09-28T03:52:45.713Z,12.07
2022-09-28T03:55:13.214Z,12.03
2022-09-28T03:57:40.729Z,12.50
2022-09-28T04:00:09.525Z,11.80
2022-09-28T04:02:37.513Z,12.27
2022-09-28T04:05:06.967Z,13.00
2022-09-28T04:07:34.699Z,11.30
2022-09-28T04:10:02.334Z,12.73
2022-09-28T04:12:29.881Z,11.90
2022-09-28T04:14:57.557Z,11.97
2022-09-28T04:17:25.038Z,12.13
2022-09-28T04:19:53.050Z,11.37
2022-09-28T04:22:23.642Z,11.87
2022-09-28T04:24:51.568Z,11.47
2022-09-28T04:27:36.303Z,12.33
2022-09-28T04:30:03.921Z,11.77
2022-09-28T04:32:31.560Z,12.63
2022-09-28T04:34:59.091Z,12.17
2022-09-28T04:37:28.467Z,12.33
2022-09-28T04:39:56.008Z,11.37
2022-09-28T04:42:23.659Z,11.17
2022-09-28T04:44:51.251Z,12.30
2022-09-28T04:47:18.806Z,11.87
2022-09-28T04:49:46.342Z,11.00
2022-09-28T04:52:18.318Z,12.43
2022-09-28T04:54:47.770Z,11.47
2022-09-28T04:57:15.298Z,13.07
2022-09-28T04:59:42.872Z,12.47
2022-09-28T05:02:10.934Z,13.17
2022-09-28T05:04:38.652Z,14.90
2022-09-28T05:07:06.265Z,18.33
2022-09-28T05:09:37.664Z,19.30
2022-09-28T05:12:07.547Z,22.43
2022-09-28T05:14:35.209Z,23.40
2022-09-28T05:17:03.142Z,23.43
2022-09-28T05:19:31.428Z,24.00
2022-09-28T05:22:00.556Z,25.90
2022-09-28T05:24:28.117Z,25.90
2022-09-28T05:26:55.700Z,25.33
2022-09-28T05:29:25.790Z,25.83
2022-09-28T05:31:54.792Z,24.97
2022-09-28T05:34:22.717Z,24.77
2022-09-28T05:36:50.736Z,25.00
2022-09-28T05:39:18.467Z,23.87
2022-09-28T05:41:46.227Z,23.93
2022-09-28T05:44:13.685Z,24.50
2022-09-28T05:46:42.682Z,26.07
2022-09-28T05:49:10.336Z,25.73
2022-09-28T05:51:38.636Z,25.30
2022-09-28T05:54:13.513Z,26.03
2022-09-28T05:56:41.167Z,26.60
2022-09-28T05:59:09.372Z,26.53
2022-09-28T06:01:36.875Z,25.07
2022-09-28T06:04:06.087Z,23.33
2022-09-28T06:06:36.076Z,25.50
2022-09-28T06:09:03.689Z,23.83
2022-09-28T06:11:32.311Z,23.57
2022-09-28T06:13:59.927Z,22.23
2022-09-28T06:16:28.102Z,24.23
2022-09-28T06:18:55.711Z,23.77
2022-09-28T06:21:25.285Z,24.20
2022-09-28T06:23:52.904Z,22.70
2022-09-28T06:26:20.561Z,23.57
2022-09-28T06:28:48.179Z,23.43
2022-09-28T06:31:15.936Z,24.23
2022-09-28T06:33:44.057Z,24.80
2022-09-28T06:36:11.761Z,24.27
2022-09-28T06:38:41.055Z,21.57
2022-09-28T06:41:08.867Z,22.67
2022-09-28T06:43:36.852Z,24.50
2022-09-28T06:46:04.697Z,25.33
2022-09-28T06:48:34.338Z,23.47
2022-09-28T06:51:02.262Z,24.67
2022-09-28T06:53:30.106Z,24.47
2022-09-28T06:55:59.843Z,27.40
2022-09-28T07:01:58.778Z,26.17
2022-09-28T07:04:33.163Z,28.33
2022-09-28T07:07:01.564Z,28.37
2022-09-28T07:09:33.908Z,27.50
2022-09-28T07:12:04.958Z,28.00
2022-09-28T07:14:46.515Z,28.03
2022-09-28T07:24:42.794Z,23.47
2022-09-28T07:27:53.365Z,25.57
2022-09-28T07:30:24.662Z,23.43
2022-09-28T07:33:27.576Z,28.70
2022-09-28T07:35:56.363Z,27.80
2022-09-28T07:38:25.051Z,33.93
2022-09-28T07:41:22.074Z,32.67
2022-09-28T07:43:52.465Z,30.23
2022-09-28T07:46:26.273Z,29.37
2022-09-28T07:49:11.603Z,29.20
2022-09-28T07:52:18.670Z,31.33
2022-09-28T07:55:29.366Z,29.00
2022-09-28T07:58:55.012Z,28.00
2022-09-28T08:02:00.667Z,28.27
2022-09-28T08:04:34.483Z,29.67
2022-09-28T08:07:03.249Z,50.93
2022-09-28T08:09:32.618Z,30.93
2022-09-28T08:12:00.368Z,31.40
2022-09-28T08:14:28.880Z,32.00
2022-09-28T08:16:59.572Z,31.20
2022-09-28T08:19:47.494Z,31.23
2022-09-28T08:22:24.423Z,28.23
2022-09-28T08:25:00.157Z,28.77
2022-09-28T08:27:31.894Z,29.63
2022-09-28T08:29:59.552Z,29.90
2022-09-28T08:32:27.241Z,28.73
2022-09-28T08:34:56.261Z,28.90
2022-09-28T08:37:25.510Z,26.70
2022-09-28T08:39:53.830Z,26.03
2022-09-28T08:42:30.975Z,31.40
2022-09-28T08:45:01.121Z,25.00
2022-09-28T08:47:52.026Z,22.23
2022-09-28T08:50:21.853Z,22.23
2022-09-28T08:52:54.605Z,24.70
2022-09-28T08:55:26.100Z,21.93
2022-09-28T08:57:57.327Z,27.50
2022-09-28T09:00:32.429Z,29.30
2022-09-28T09:03:00.453Z,31.40
2022-09-28T09:05:39.627Z,29.53
2022-09-28T09:08:25.182Z,28.80
2022-09-28T09:10:53.972Z,26.37
2022-09-28T09:13:36.517Z,30.60
2022-09-28T09:16:06.220Z,31.37
2022-09-28T09:18:37.506Z,27.37
2022-09-28T09:21:09.466Z,25.93
2022-09-28T09:23:39.870Z,22.37
2022-09-28T09:26:16.038Z,19.07
2022-09-28T09:28:51.969Z,17.60
2022-09-28T09:31:27.532Z,15.63
2022-09-28T09:34:03.771Z,26.13
2022-09-28T09:36:36.084Z,13.83
2022-09-28T09:39:15.261Z,27.90
2022-09-28T09:41:49.186Z,19.47
2022-09-28T09:44:24.399Z,20.83
2022-09-28T09:46:54.985Z,21.63
2022-09-28T09:49:25.288Z,22.37
2022-09-28T09:51:57.222Z,22.50
2022-09-28T09:54:28.491Z,21.77
2022-09-28T09:56:58.465Z,18.23
2022-09-28T09:59:28.109Z,18.90
2022-09-28T10:01:56.840Z,42.67
2022-09-28T10:04:26.079Z,23.87
2022-09-28T10:06:56.901Z,25.20
2022-09-28T10:09:27.598Z,22.63
2022-09-28T10:11:55.220Z,24.17
2022-09-28T10:14:24.707Z,25.13
2022-09-28T10:16:53.758Z,26.97
2022-09-28T10:19:22.583Z,20.67
2022-09-28T10:21:51.853Z,19.17
2022-09-28T10:24:23.358Z,19.17
2022-09-28T10:26:55.090Z,17.43
2022-09-28T10:29:23.603Z,18.03
2022-09-28T10:31:52.572Z,20.73
2022-09-28T10:34:25.929Z,18.70
2022-09-28T10:36:56.139Z,55.90
2022-09-28T10:39:26.899Z,19.43
2022-09-28T10:41:56.305Z,19.73
2022-09-28T10:44:24.245Z,22.53
2022-09-28T10:46:57.284Z,22.30
2022-09-28T10:49:26.040Z,25.23
2022-09-28T10:51:56.330Z,26.87
2022-09-28T10:54:24.431Z,27.03
2022-09-28T10:56:52.666Z,27.07
2022-09-28T10:59:36.847Z,29.93
2022-09-28T11:02:08.305Z,25.10
2022-09-28T11:04:39.436Z,29.43
2022-09-28T11:07:17.322Z,26.73
2022-09-28T11:09:48.699Z,28.07
2022-09-28T11:12:17.764Z,28.13
2022-09-28T11:14:48.827Z,27.33
2022-09-28T11:17:17.103Z,24.97
2022-09-28T11:19:44.991Z,25.20
2022-09-28T11:22:26.270Z,22.63
2022-09-28T11:24:54.185Z,22.63
2022-09-28T11:27:23.328Z,22.23
2022-09-28T11:29:57.006Z,20.17
2022-09-28T11:32:25.660Z,22.60
2022-09-28T11:34:59.567Z,21.27
2022-09-28T11:37:34.979Z,21.33
2022-09-28T11:40:07.150Z,22.17
2022-09-28T11:42:40.929Z,21.90
2022-09-28T11:45:24.063Z,19.50
2022-09-28T11:47:56.279Z,17.17
2022-09-28T11:50:28.796Z,19.27
2022-09-28T11:52:58.889Z,18.80
2022-09-28T11:55:30.743Z,17.13
2022-09-28T11:58:02.129Z,13.97
2022-09-28T12:00:32.296Z,14.17
2022-09-28T12:03:02.610Z,14.60
2022-09-28T12:05:33.241Z,16.70
2022-09-28T12:08:03.480Z,17.40
2022-09-28T12:10:34.623Z,19.30
2022-09-28T12:13:04.441Z,21.23
2022-09-28T12:15:59.242Z,20.10
2022-09-28T12:18:27.598Z,19.67
2022-09-28T12:21:05.041Z,21.13
2022-09-28T12:23:36.480Z,19.63
2022-09-28T12:26:06.154Z,19.93
2022-09-28T12:28:36.917Z,20.40
2022-09-28T12:31:10.931Z,19.50
2022-09-28T12:33:39.021Z,19.10
2022-09-28T12:36:13.585Z,19.07
2022-09-28T12:39:08.506Z,20.23
2022-09-28T12:41:43.595Z,18.77
2022-09-28T12:44:20.205Z,19.13
2022-09-28T12:46:58.419Z,15.67
2022-09-28T12:52:24.451Z,15.87
2022-09-28T12:55:06.252Z,20.57
2022-09-28T12:57:41.736Z,23.33
2022-09-28T13:00:11.932Z,21.77
2022-09-28T13:02:57.555Z,22.33
2022-09-28T13:05:40.928Z,22.93
2022-09-28T13:08:11.444Z,20.13
2022-09-28T13:10:42.240Z,17.70
2022-09-28T13:13:21.820Z,18.40
2022-09-28T13:15:51.983Z,19.20
2022-09-28T13:18:23.589Z,21.43
2022-09-28T13:20:59.680Z,25.70
2022-09-28T13:23:29.917Z,24.93
2022-09-28T13:25:59.960Z,18.60
2022-09-28T13:28:29.003Z,20.30
2022-09-28T13:33:30.152Z,22.17
2022-09-28T13:35:59.893Z,18.43
2022-09-28T13:38:31.214Z,15.87
2022-09-28T13:41:12.303Z,17.33
2022-09-28T13:43:48.023Z,15.73
2022-09-28T13:46:22.228Z,15.60
2022-09-28T13:48:59.654Z,18.20
2022-09-28T13:51:33.075Z,17.47
2022-09-28T13:54:07.096Z,15.77
2022-09-28T13:56:37.268Z,18.33
2022-09-28T13:59:11.105Z,25.67
2022-09-28T14:01:41.019Z,23.33
2022-09-28T14:04:14.331Z,21.80
2022-09-28T14:06:48.696Z,18.60
2022-09-28T14:09:26.237Z,16.73
2022-09-28T14:11:58.074Z,16.27
2022-09-28T14:14:27.500Z,18.30
2022-09-28T14:17:20.065Z,19.87
2022-09-28T14:19:50.863Z,21.17
2022-09-28T14:22:26.743Z,20.63
2022-09-28T14:25:04.118Z,19.90
2022-09-28T14:27:39.241Z,20.00
2022-09-28T14:30:09.077Z,17.50
2022-09-28T14:32:37.772Z,16.70
2022-09-28T14:35:07.141Z,15.43
2022-09-28T14:37:55.656Z,25.10
2022-09-28T14:40:47.244Z,28.23
2022-09-28T14:43:24.237Z,25.63
2022-09-28T14:45:52.843Z,28.53
2022-09-28T14:48:21.970Z,29.73
2022-09-28T14:50:50.119Z,27.17
2022-09-28T14:53:26.093Z,26.17
2022-09-28T14:55:56.251Z,24.73
2022-09-28T14:58:26.105Z,24.00
2022-09-28T15:01:01.460Z,23.60
2022-09-28T15:03:31.290Z,22.53
2022-09-28T15:05:59.721Z,23.07
2022-09-28T15:08:38.492Z,22.40
2022-09-28T15:11:07.516Z,17.43
2022-09-28T15:13:36.509Z,15.87
2022-09-28T15:16:06.684Z,14.00
2022-09-28T15:18:44.503Z,15.20
2022-09-28T15:21:12.619Z,19.13
2022-09-28T15:23:44.214Z,20.00
2022-09-28T15:26:22.305Z,19.17
2022-09-28T15:28:50.261Z,20.43
2022-09-28T15:31:19.163Z,19.27
2022-09-28T15:34:05.347Z,19.43
2022-09-28T15:36:34.416Z,18.13
2022-09-28T15:39:05.411Z,17.20
2022-09-28T15:41:35.084Z,14.27
2022-09-28T15:44:18.806Z,16.73
2022-09-28T15:46:48.140Z,21.07
2022-09-28T15:49:24.354Z,20.70
2022-09-28T15:51:54.300Z,21.97
2022-09-28T15:54:25.193Z,19.77
2022-09-28T15:56:54.915Z,13.83
2022-09-28T15:59:27.802Z,13.20
2022-09-28T16:02:07.610Z,17.20
2022-09-28T16:04:37.684Z,18.50
2022-09-28T16:07:06.796Z,19.33
2022-09-28T16:09:54.959Z,19.13
2022-09-28T16:12:23.043Z,18.60
2022-09-28T16:14:51.353Z,18.13
2022-09-28T16:17:20.553Z,18.03
2022-09-28T16:19:49.850Z,16.33
2022-09-28T16:22:24.479Z,17.70
2022-09-28T16:24:58.330Z,16.37
2022-09-28T16:27:28.902Z,16.40
2022-09-28T16:30:05.341Z,16.53
2022-09-28T16:32:39.172Z,16.93
2022-09-28T16:35:19.198Z,15.47
2022-09-28T16:37:49.032Z,14.97
2022-09-28T16:40:19.075Z,15.63
2022-09-28T16:42:49.308Z,13.47
2022-09-28T16:45:19.966Z,15.00
2022-09-28T16:47:52.530Z,14.63
2022-09-28T16:50:20.934Z,16.00
2022-09-28T16:53:06.057Z,18.57
2022-09-28T16:55:40.619Z,25.87
2022-09-28T16:58:09.773Z,29.77
2022-09-28T17:00:37.905Z,31.60
2022-09-28T17:03:12.085Z,31.60
2022-09-28T17:05:40.287Z,31.47
2022-09-28T17:08:10.064Z,40.60
2022-09-28T17:11:12.423Z,26.70
2022-09-28T17:13:34.834Z,19.97
2022-09-28T17:16:04.683Z,22.70
2022-09-28T17:18:32.606Z,19.37
2022-09-28T17:21:03.548Z,18.83
2022-09-28T17:23:31.509Z,19.97
2022-09-28T17:26:00.921Z,18.50
2022-09-28T17:28:33.109Z,16.70
2022-09-28T17:31:01.248Z,17.33
2022-09-28T17:33:30.034Z,17.07
2022-09-28T17:36:00.400Z,15.23
2022-09-28T17:38:28.959Z,14.90
2022-09-28T17:40:57.183Z,14.80
2022-09-28T17:43:26.483Z,13.47
2022-09-28T17:45:55.002Z,14.13
2022-09-28T17:48:24.426Z,15.43
2022-09-28T17:50:52.304Z,16.00
2022-09-28T17:53:20.107Z,17.63
2022-09-28T17:55:48.029Z,17.87
2022-09-28T17:58:17.737Z,18.00
2022-09-28T18:00:47.528Z,20.87
2022-09-28T18:03:16.741Z,19.30
2022-09-28T18:05:45.159Z,21.13
2022-09-28T18:08:14.780Z,21.60
2022-09-28T18:10:42.660Z,22.97
2022-09-28T18:13:10.743Z,21.47
2022-09-28T18:15:38.798Z,23.73
2022-09-28T18:21:38.583Z,25.07
2022-09-28T18:35:01.446Z,27.10
2022-09-28T18:38:17.503Z,27.83
2022-09-28T18:51:38.531Z,19.47
2022-09-28T19:08:17.142Z,12.63
2022-09-28T19:15:36.584Z,12.90
2022-09-28T19:18:32.741Z,12.50
2022-09-28T19:28:37.983Z,13.03
2022-09-28T19:45:23.176Z,13.10
2022-09-28T19:52:13.758Z,12.93
2022-09-28T19:58:41.718Z,12.90
2022-09-28T20:02:18.691Z,15.33
2022-09-28T20:19:20.072Z,13.07
2022-09-28T20:22:37.959Z,14.97
2022-09-28T20:26:03.206Z,20.47
2022-09-28T20:45:38.432Z,12.13
2022-09-28T20:48:06.960Z,13.07
2022-09-28T20:50:35.226Z,12.83
2022-09-28T20:53:03.266Z,13.43
2022-09-28T20:55:31.103Z,12.93
2022-09-28T20:58:03.415Z,13.27
2022-09-28T21:00:31.877Z,11.67
2022-09-28T21:03:01.812Z,12.47
2022-09-28T21:05:30.714Z,13.70
2022-09-28T21:07:59.425Z,12.50
2022-09-28T21:10:30.523Z,12.33
2022-09-28T21:12:58.459Z,12.07
2022-09-28T21:15:26.606Z,12.13
2022-09-28T21:17:54.634Z,16.50
2022-09-28T21:20:23.925Z,27.80
2022-09-28T21:22:52.156Z,23.13
2022-09-28T21:25:20.046Z,14.10
2022-09-28T21:27:48.403Z,33.90
2022-09-28T21:30:20.139Z,14.30
2022-09-28T21:32:50.292Z,17.30
2022-09-28T21:35:18.341Z,15.23
2022-09-28T21:37:47.611Z,25.70
2022-09-28T21:40:15.615Z,16.27
2022-09-28T21:42:43.474Z,16.50
2022-09-28T21:45:11.496Z,16.57
2022-09-28T21:47:39.886Z,14.93
2022-09-28T21:50:08.371Z,14.43
2022-09-28T21:52:36.195Z,15.10
2022-09-28T21:55:05.710Z,14.63
2022-09-28T21:57:33.441Z,13.20
2022-09-28T22:00:01.237Z,13.33
2022-09-28T22:02:29.924Z,14.03
2022-09-28T22:04:58.331Z,13.33
2022-09-28T22:07:26.165Z,13.63
2022-09-28T22:09:54.434Z,13.83
2022-09-28T22:12:23.583Z,14.23
2022-09-28T22:14:51.436Z,14.33
2022-09-28T22:17:19.248Z,15.07
2022-09-28T22:19:47.018Z,15.10
2022-09-28T22:22:15.421Z,15.83
2022-09-28T22:24:43.760Z,16.13
2022-09-28T22:27:11.854Z,16.20
2022-09-28T22:29:41.340Z,15.47
2022-09-28T22:32:09.635Z,15.47
2022-09-28T22:34:37.424Z,13.73
2022-09-28T22:37:05.446Z,14.00
2022-09-28T22:39:37.509Z,13.77
2022-09-28T22:42:05.845Z,14.10
2022-09-28T22:44:35.591Z,12.77
2022-09-28T22:47:04.750Z,13.27
2022-09-28T22:49:32.800Z,12.13
2022-09-28T22:52:00.671Z,12.40
2022-09-28T22:54:28.899Z,11.93
2022-09-28T22:56:56.848Z,14.23
2022-09-28T22:59:24.684Z,14.23
2022-09-28T23:01:52.526Z,13.47
2022-09-28T23:04:21.755Z,14.10
2022-09-28T23:06:49.590Z,14.00
2022-09-28T23:09:17.479Z,13.53
2022-09-28T23:11:45.390Z,27.27
2022-09-28T23:14:13.643Z,24.97
2022-09-28T23:16:41.667Z,18.17
2022-09-28T23:19:09.458Z,35.03
2022-09-28T23:21:39.708Z,13.57
2022-09-28T23:24:08.185Z,14.03
2022-09-28T23:26:37.141Z,12.90
2022-09-28T23:29:04.951Z,14.33
2022-09-28T23:31:33.880Z,14.17
2022-09-28T23:34:02.490Z,19.60
2022-09-28T23:36:30.356Z,17.77
2022-09-28T23:38:59.746Z,17.83
2022-09-28T23:41:27.559Z,18.00
2022-09-28T23:43:55.309Z,18.27
2022-09-28T23:46:23.617Z,18.67
2022-09-28T23:48:51.602Z,17.53
2022-09-28T23:51:19.487Z,17.53
2022-09-28T23:53:47.357Z,21.83
2022-09-28T23:56:17.204Z,17.67
2022-09-28T23:58:45.176Z,18.00
